Time;durP1;ratioP1;P1;durP2;ratioP2;P2;SDS_P1;SDS_P2;PMS_P1;PMS_P2;Temp;Humidity;BMP_temperature;BMP_pressure;BME280_temperature;BME280_humidity;BME280_pressure;Samples;Min_cycle;Max_cycle;Signal;HPM_P1;HPM_P2
2023/06/18 00:01:03;;;;;;;0.73;0.73;;;14.90;99.90;;;;;;4897732;29;19923;-62
2023/06/18 00:03:29;;;;;;;;;;;15.60;99.90;;;;;;4898109;29;20056;-62
2023/06/18 00:05:55;;;;;;;0.65;0.65;;;15.00;99.90;;;;;;4897395;29;20019;-62
2023/06/18 00:08:20;;;;;;;;;;;15.50;99.90;;;;;;4898204;29;20494;-62
2023/06/18 00:10:46;;;;;;;1.15;1.10;;;15.10;99.90;;;;;;4897608;29;20381;-61
2023/06/18 00:13:12;;;;;;;;;;;15.00;99.90;;;;;;4897971;29;20135;-62
2023/06/18 00:15:38;;;;;;;0.85;0.75;;;15.10;99.90;;;;;;4897561;29;20502;-62
2023/06/18 00:18:03;;;;;;;;;;;14.90;99.90;;;;;;4897743;29;20088;-62
2023/06/18 00:20:29;;;;;;;0.90;0.90;;;15.20;99.90;;;;;;4897487;29;19986;-62
2023/06/18 00:22:55;;;;;;;;;;;14.80;99.90;;;;;;4897888;29;20165;-62
2023/06/18 00:25:21;;;;;;;1.13;1.13;;;14.90;99.90;;;;;;4897393;29;20459;-62
2023/06/18 00:27:47;;;;;;;1.75;1.05;;;15.10;99.90;;;;;;4897379;29;20061;-63
2023/06/18 00:30:13;;;;;;;;;;;14.40;99.90;;;;;;4897520;29;20052;-62
2023/06/18 00:32:44;;;;;;;3.92;1.63;;;15.20;99.90;;;;;;4897217;29;19986;-62
2023/06/18 00:35:17;;;;;;;1.65;1.15;;;15.20;99.90;;;;;;4897083;29;20529;-62
2023/06/18 00:37:43;;;;;;;0.43;0.43;;;14.70;99.90;;;;;;4897187;29;20053;-62
2023/06/18 00:40:13;;;;;;;0.90;0.90;;;14.70;99.90;;;;;;4897124;29;20061;-62
2023/06/18 00:42:40;;;;;;;2.97;2.75;;;14.50;99.90;;;;;;4897169;29;20072;-61
2023/06/18 00:45:09;;;;;;;1.77;1.20;;;14.20;99.90;;;;;;4896901;29;20052;-62
2023/06/18 00:47:44;;;;;;;0.57;0.57;;;15.10;99.90;;;;;;4897149;29;20040;-62
2023/06/18 00:50:14;;;;;;;3.83;1.35;;;15.10;99.90;;;;;;4896746;29;20058;-62
2023/06/18 00:52:44;;;;;;;1.15;1.05;;;15.00;99.90;;;;;;4896933;29;20059;-62
2023/06/18 00:55:10;;;;;;;0.50;0.50;;;14.80;99.90;;;;;;4896877;29;20048;-62
2023/06/18 00:57:37;;;;;;;1.80;1.27;;;15.00;99.90;;;;;;4896760;29;20093;-62
2023/06/18 01:00:09;;;;;;;1.52;0.98;;;14.80;99.90;;;;;;4896926;29;20056;-62
2023/06/18 01:02:34;;;;;;;2.55;0.95;;;15.10;99.90;;;;;;4896819;29;20493;-62
2023/06/18 01:05:00;;;;;;;;;;;14.40;99.90;;;;;;4897195;29;20135;-62
2023/06/18 01:07:27;;;;;;;3.75;1.52;;;14.80;99.90;;;;;;4896620;29;19931;-62
2023/06/18 01:09:54;;;;;;;1.23;1.13;;;14.30;99.90;;;;;;4896589;29;20057;-62
2023/06/18 01:12:21;;;;;;;1.83;1.10;;;14.30;99.90;;;;;;4896582;29;20108;-62
2023/06/18 01:14:53;;;;;;;0.95;0.95;;;14.20;99.90;;;;;;4896554;29;20067;-61
2023/06/18 01:17:20;;;;;;;1.33;1.13;;;14.40;99.90;;;;;;4896759;29;20064;-62
2023/06/18 01:20:00;;;;;;;2.45;1.25;;;14.60;99.90;;;;;;4896656;29;20473;-62
2023/06/18 01:22:30;;;;;;;1.55;1.45;;;14.30;99.90;;;;;;4896568;29;20168;-62
2023/06/18 01:24:58;;;;;;;0.73;0.73;;;14.90;99.90;;;;;;4896650;29;20200;-62
2023/06/18 01:27:27;;;;;;;1.30;1.20;;;14.70;99.90;;;;;;4896668;29;20119;-62
2023/06/18 01:29:56;;;;;;;2.10;1.77;;;14.80;99.90;;;;;;4896615;29;20044;-61
2023/06/18 01:32:22;;;;;;;1.02;1.02;;;14.80;99.90;;;;;;4896454;29;20052;-62
2023/06/18 01:34:47;;;;;;;;;;;14.60;99.90;;;;;;4896833;29;20119;-61
2023/06/18 01:37:24;;;;;;;1.23;1.13;;;15.00;99.90;;;;;;4896491;29;19924;-62
2023/06/18 01:40:08;;;;;;;1.63;1.48;;;14.90;99.90;;;;;;4896586;29;20108;-61
2023/06/18 01:42:39;;;;;;;2.00;1.55;;;14.80;99.90;;;;;;4896761;29;20056;-62
2023/06/18 01:45:12;;;;;;;3.88;2.20;;;14.80;99.90;;;;;;4896599;29;20132;-62
2023/06/18 01:47:41;;;;;;;2.03;1.65;;;14.00;99.90;;;;;;4896277;29;20068;-62
2023/06/18 01:50:07;;;;;;;2.60;1.17;;;14.20;99.90;;;;;;4896172;29;20052;-62
2023/06/18 01:52:40;;;;;;;0.90;0.90;;;13.80;99.90;;;;;;4896333;29;20064;-62
2023/06/18 01:55:07;;;;;;;1.38;1.27;;;14.70;99.90;;;;;;4896338;29;20401;-62
2023/06/18 01:57:33;;;;;;;1.35;0.98;;;14.40;99.90;;;;;;4896248;29;20501;-61
2023/06/18 01:59:59;;;;;;;1.00;1.00;;;14.20;99.90;;;;;;4896192;29;20055;-62
2023/06/18 02:02:24;;;;;;;;;;;14.20;99.90;;;;;;4896426;29;20048;-61
2023/06/18 02:04:50;;;;;;;1.90;1.55;;;14.40;99.90;;;;;;4896263;29;19923;-62
2023/06/18 02:07:16;;;;;;;;;;;13.80;99.90;;;;;;4896720;29;20048;-61
2023/06/18 02:09:41;;;;;;;1.80;1.23;;;14.00;99.90;;;;;;4896252;29;20341;-62
2023/06/18 02:12:07;;;;;;;;;;;13.70;99.90;;;;;;4896426;29;20056;-61
2023/06/18 02:14:33;;;;;;;0.95;0.85;;;14.20;99.90;;;;;;4896022;29;19927;-61
2023/06/18 02:16:59;;;;;;;;;;;13.60;99.90;;;;;;4896385;29;20610;-61
2023/06/18 02:19:25;;;;;;;1.08;0.70;;;13.90;99.90;;;;;;4896237;29;19962;-61
2023/06/18 02:21:52;;;;;;;1.80;1.25;;;14.30;99.90;;;;;;4896219;29;20107;-61
2023/06/18 02:24:18;;;;;;;2.28;2.03;;;14.00;99.90;;;;;;4896116;29;20064;-61
2023/06/18 02:26:43;;;;;;;;;;;14.00;99.90;;;;;;4896466;29;20053;-62
2023/06/18 02:29:09;;;;;;;1.35;1.25;;;14.20;99.90;;;;;;4897918;29;20063;-61
2023/06/18 02:31:35;;;;;;;;;;;13.40;99.90;;;;;;4899685;29;20055;-61
2023/06/18 02:34:00;;;;;;;0.77;0.77;;;13.60;99.90;;;;;;4899439;29;19923;-62
2023/06/18 02:36:27;;;;;;;;;;;13.80;99.90;;;;;;4899843;29;20056;-61
2023/06/18 02:38:52;;;;;;;3.20;1.67;;;14.00;99.90;;;;;;4899277;29;20380;-61
2023/06/18 02:41:21;;;;;;;1.65;1.55;;;13.70;99.90;;;;;;4899157;29;20072;-61
2023/06/18 02:43:50;;;;;;;0.80;0.80;;;13.80;99.90;;;;;;4898980;29;20045;-61
2023/06/18 02:46:17;;;;;;;0.95;0.82;;;12.80;99.90;;;;;;4899348;29;20067;-61
2023/06/18 02:48:43;;;;;;;0.50;0.50;;;13.10;99.90;;;;;;4899101;29;20103;-61
2023/06/18 02:51:09;;;;;;;1.58;1.48;;;12.70;99.90;;;;;;4898846;29;20104;-61
2023/06/18 02:53:35;;;;;;;1.05;0.85;;;13.50;99.90;;;;;;4899091;29;20044;-62
2023/06/18 02:56:01;;;;;;;2.22;1.35;;;13.70;99.90;;;;;;4898887;29;20526;-61
2023/06/18 02:58:29;;;;;;;;;;;12.80;99.90;;;;;;4899291;29;20101;-61
2023/06/18 03:00:59;;;;;;;1.23;0.60;;;13.50;99.90;;;;;;4899009;29;19927;-62
2023/06/18 03:03:26;;;;;;;2.83;1.00;;;13.00;99.90;;;;;;4898968;29;20092;-61
2023/06/18 03:05:52;;;;;;;1.52;1.35;;;13.40;99.90;;;;;;4898766;29;20837;-61
2023/06/18 03:08:19;;;;;;;1.48;0.98;;;12.80;99.90;;;;;;4898767;29;20482;-61
2023/06/18 03:10:45;;;;;;;1.17;1.13;;;13.30;99.90;;;;;;4898647;29;20045;-61
2023/06/18 03:13:11;;;;;;;1.15;1.15;;;13.10;99.90;;;;;;4898489;29;20564;-62
2023/06/18 03:15:37;;;;;;;1.67;1.52;;;13.30;99.90;;;;;;4898804;29;20112;-61
2023/06/18 03:18:03;;;;;;;0.93;0.93;;;12.60;99.90;;;;;;4898388;29;20164;-61
2023/06/18 03:20:28;;;;;;;;;;;13.20;99.90;;;;;;4898983;29;20120;-61
2023/06/18 03:22:55;;;;;;;3.05;1.60;;;13.30;99.90;;;;;;4898486;29;19924;-61
2023/06/18 03:25:21;;;;;;;11.50;1.40;;;13.50;99.90;;;;;;4898366;29;20052;-61
2023/06/18 03:27:47;;;;;;;2.92;1.88;;;13.70;99.90;;;;;;4898369;29;20055;-61
2023/06/18 03:30:14;;;;;;;3.00;1.70;;;13.30;99.90;;;;;;4898504;29;20078;-61
2023/06/18 03:32:40;;;;;;;2.25;1.42;;;13.30;99.90;;;;;;4898512;29;20103;-62
2023/06/18 03:35:06;;;;;;;3.20;1.83;;;13.00;99.90;;;;;;4898409;29;20176;-61
2023/06/18 03:37:32;;;;;;;1.25;1.10;;;13.70;99.90;;;;;;4898491;29;20083;-61
2023/06/18 03:39:58;;;;;;;1.15;1.10;;;13.50;99.90;;;;;;4897165;29;20112;-62
2023/06/18 03:42:24;;;;;;;;;;;13.80;99.90;;;;;;4898506;29;20423;-61
2023/06/18 03:44:50;;;;;;;1.23;1.02;;;14.00;99.90;;;;;;4898149;29;19974;-62
2023/06/18 03:47:16;;;;;;;;;;;13.20;99.90;;;;;;4898595;29;20049;-62
2023/06/18 03:49:42;;;;;;;1.55;1.23;;;13.90;99.90;;;;;;4898090;29;19930;-62
2023/06/18 03:52:07;;;;;;;1.25;0.70;;;13.60;99.90;;;;;;4897746;29;20073;-62
2023/06/18 03:54:33;;;;;;;;;;;14.20;99.90;;;;;;4898300;29;20212;-62
2023/06/18 03:56:59;;;;;;;1.27;1.17;;;13.90;99.90;;;;;;4897708;29;19931;-62
2023/06/18 03:59:25;;;;;;;1.73;1.63;;;14.50;99.90;;;;;;4897820;29;20139;-62
2023/06/18 04:01:51;;;;;;;0.70;0.70;;;13.30;99.90;;;;;;4897734;29;20454;-62
2023/06/18 04:04:16;;;;;;;0.70;0.70;;;14.00;99.90;;;;;;4897600;29;20509;-62
2023/06/18 04:06:42;;;;;;;2.22;2.10;;;13.60;99.90;;;;;;4897757;29;20149;-62
2023/06/18 04:09:08;;;;;;;;;;;13.70;99.90;;;;;;4897988;29;20048;-62
2023/06/18 04:11:38;;;;;;;2.05;1.10;;;13.80;99.90;;;;;;4897319;29;19947;-62
2023/06/18 04:14:04;;;;;;;1.00;1.00;;;14.00;99.90;;;;;;4897699;29;20422;-62
2023/06/18 04:16:29;;;;;;;;;;;13.90;99.90;;;;;;4898154;29;20054;-62
2023/06/18 04:18:55;;;;;;;0.73;0.73;;;14.10;99.90;;;;;;4897414;29;20371;-62
2023/06/18 04:21:21;;;;;;;;;;;16.10;99.90;;;;;;4897749;29;20119;-62
2023/06/18 04:23:46;;;;;;;1.30;0.85;;;14.50;99.90;;;;;;4897413;29;19927;-62
2023/06/18 04:26:12;;;;;;;;;;;13.60;99.90;;;;;;4897602;29;20356;-62
2023/06/18 04:28:38;;;;;;;1.08;0.98;;;14.10;99.90;;;;;;4897512;29;19956;-62
2023/06/18 04:31:03;;;;;;;;;;;14.00;99.90;;;;;;4897561;29;20446;-62
2023/06/18 04:33:29;;;;;;;1.00;0.82;;;14.30;99.90;;;;;;4897309;29;19927;-62
2023/06/18 04:35:55;;;;;;;;;;;15.20;99.90;;;;;;4897602;29;20088;-62
2023/06/18 04:38:23;;;;;;;1.17;1.08;;;14.40;99.90;;;;;;4897185;29;20295;-62
2023/06/18 04:40:49;;;;;;;0.98;0.88;;;14.80;99.90;;;;;;4897075;29;20088;-62
2023/06/18 04:43:17;;;;;;;1.42;1.33;;;14.50;99.90;;;;;;4897246;29;20052;-62
2023/06/18 04:45:45;;;;;;;2.25;2.05;;;15.10;99.90;;;;;;4897083;29;20501;-62
2023/06/18 04:48:11;;;;;;;2.08;1.55;;;14.90;99.90;;;;;;4896936;29;20413;-62
2023/06/18 04:50:38;;;;;;;2.47;1.75;;;14.80;99.90;;;;;;4896524;29;20052;-62
2023/06/18 04:53:04;;;;;;;1.13;1.02;;;14.90;99.90;;;;;;4896775;29;20056;-62
2023/06/18 04:55:30;;;;;;;;;;;15.30;99.90;;;;;;4897179;29;20060;-62
2023/06/18 04:57:56;;;;;;;2.08;1.20;;;15.30;99.90;;;;;;4896996;29;20444;-62
2023/06/18 05:00:22;;;;;;;;;;;15.40;99.90;;;;;;4880823;29;20057;-62
2023/06/18 05:02:47;;;;;;;1.00;0.73;;;15.70;99.90;;;;;;4896829;29;20269;-62
2023/06/18 05:05:13;;;;;;;;;;;15.00;99.90;;;;;;4897173;29;20059;-62
2023/06/18 05:07:39;;;;;;;0.70;0.70;;;15.50;99.90;;;;;;4896683;29;20034;-62
2023/06/18 05:10:04;;;;;;;;;;;15.20;99.90;;;;;;4897068;29;20052;-62
2023/06/18 05:12:31;;;;;;;1.13;1.13;;;14.70;99.90;;;;;;4896764;29;20419;-62
2023/06/18 05:14:56;;;;;;;1.88;0.95;;;14.90;99.90;;;;;;4896743;29;20053;-62
2023/06/18 05:17:22;;;;;;;;;;;14.90;99.90;;;;;;4897136;29;20331;-62
2023/06/18 05:19:48;;;;;;;1.52;1.40;;;15.80;99.90;;;;;;4896594;29;20037;-62
2023/06/18 05:22:13;;;;;;;;;;;14.80;99.90;;;;;;4896966;29;20045;-62
2023/06/18 05:24:39;;;;;;;1.02;0.70;;;15.80;99.90;;;;;;4896498;29;20363;-62
2023/06/18 05:27:06;;;;;;;2.08;1.58;;;15.80;99.90;;;;;;4896691;29;20087;-62
2023/06/18 05:29:31;;;;;;;2.15;1.00;;;15.80;99.90;;;;;;4896860;29;20128;-62
2023/06/18 05:31:57;;;;;;;;;;;15.80;99.90;;;;;;4897275;29;20529;-61
2023/06/18 05:34:23;;;;;;;3.83;1.83;;;16.30;99.90;;;;;;4896603;29;20337;-62
2023/06/18 05:36:49;;;;;;;;;;;15.50;99.90;;;;;;4896873;29;20045;-62
2023/06/18 05:39:15;;;;;;;2.35;1.67;;;15.30;99.90;;;;;;4896381;29;20292;-61
2023/06/18 05:41:40;;;;;;;1.63;1.48;;;16.20;99.90;;;;;;4896662;29;20431;-62
2023/06/18 05:44:06;;;;;;;;;;;16.30;99.90;;;;;;4896896;29;20049;-61
2023/06/18 05:46:32;;;;;;;1.20;1.08;;;15.60;99.90;;;;;;4892100;29;19923;-61
2023/06/18 05:48:57;;;;;;;1.88;1.70;;;16.10;99.90;;;;;;4895313;29;20382;-61
2023/06/18 05:51:23;;;;;;;;;;;15.40;99.90;;;;;;4891770;29;20088;-61
2023/06/18 05:53:49;;;;;;;1.95;1.60;;;15.80;99.90;;;;;;4892265;29;20388;-61
2023/06/18 05:56:14;;;;;;;;;;;16.50;99.90;;;;;;4895724;29;20048;-61
2023/06/18 05:58:40;;;;;;;1.73;1.60;;;16.70;99.90;;;;;;4895540;29;20015;-61
2023/06/18 06:01:06;;;;;;;;;;;16.40;99.90;;;;;;4895917;29;20040;-61
2023/06/18 06:03:35;;;;;;;1.02;1.00;;;17.00;99.90;;;;;;4897058;29;20333;-62
2023/06/18 06:06:01;;;;;;;1.35;1.20;;;16.60;99.90;;;;;;4898703;29;20052;-62
2023/06/18 06:08:26;;;;;;;1.20;1.10;;;17.20;99.90;;;;;;4899419;29;20111;-61
2023/06/18 06:10:52;;;;;;;;;;;16.60;99.90;;;;;;4899952;29;20469;-61
2023/06/18 06:13:19;;;;;;;1.60;1.13;;;17.00;99.90;;;;;;4899177;29;19927;-61
2023/06/18 06:15:45;;;;;;;1.58;1.45;;;16.20;99.90;;;;;;4899446;29;20059;-61
2023/06/18 06:18:11;;;;;;;1.95;1.30;;;16.90;99.90;;;;;;4899340;29;20052;-61
2023/06/18 06:20:37;;;;;;;1.20;1.10;;;17.10;99.90;;;;;;4898370;29;20041;-61
2023/06/18 06:23:02;;;;;;;;;;;17.40;99.90;;;;;;4899644;29;20143;-61
2023/06/18 06:25:28;;;;;;;2.28;1.33;;;17.30;99.90;;;;;;4913916;29;20292;-61
2023/06/18 06:27:54;;;;;;;0.93;0.93;;;17.80;99.90;;;;;;4898885;29;20056;-61
2023/06/18 06:30:20;;;;;;;2.38;1.48;;;17.90;99.90;;;;;;4898955;29;20075;-60
2023/06/18 06:32:45;;;;;;;1.80;1.17;;;18.00;99.90;;;;;;4899284;29;20063;-61
2023/06/18 06:35:11;;;;;;;1.75;1.25;;;17.20;99.90;;;;;;4898287;29;20049;-61
2023/06/18 06:37:36;;;;;;;;;;;17.70;99.90;;;;;;4899286;29;20060;-61
2023/06/18 06:40:03;;;;;;;2.17;1.52;;;17.30;99.90;;;;;;4899156;29;19923;-61
2023/06/18 06:42:29;;;;;;;2.47;1.15;;;18.40;99.90;;;;;;4898726;29;20061;-61
2023/06/18 06:44:55;;;;;;;1.50;1.40;;;18.40;99.90;;;;;;4897066;29;20048;-62
2023/06/18 06:47:20;;;;;;;1.52;1.42;;;18.40;99.90;;;;;;4897388;29;20052;-61
2023/06/18 06:49:46;;;;;;;0.70;0.70;;;18.60;99.90;;;;;;4897237;29;20575;-61
2023/06/18 06:52:12;;;;;;;1.20;0.90;;;18.80;99.90;;;;;;4897905;29;20060;-61
2023/06/18 06:54:38;;;;;;;2.13;1.48;;;18.60;99.90;;;;;;4899267;29;20553;-61
2023/06/18 06:57:03;;;;;;;1.90;1.73;;;18.70;99.90;;;;;;4899200;29;20052;-61
2023/06/18 06:59:30;;;;;;;1.30;1.20;;;18.70;99.90;;;;;;4899118;29;20188;-61
2023/06/18 07:01:56;;;;;;;1.15;1.00;;;18.80;99.90;;;;;;4899040;29;20048;-62
2023/06/18 07:04:22;;;;;;;3.72;1.48;;;19.60;99.90;;;;;;4929185;29;20059;-61
2023/06/18 07:06:49;;;;;;;1.42;1.27;;;19.80;99.90;;;;;;4898914;29;20056;-61
2023/06/18 07:09:14;;;;;;;1.48;1.33;;;19.50;99.90;;;;;;4898899;29;20056;-62
2023/06/18 07:11:40;;;;;;;2.22;1.65;;;19.80;99.90;;;;;;4897860;29;20049;-65
2023/06/18 07:14:06;;;;;;;2.83;1.35;;;20.00;99.90;;;;;;4895988;29;20091;-62
2023/06/18 07:16:32;;;;;;;4.90;2.83;;;20.60;99.90;;;;;;4898581;29;20058;-60
2023/06/18 07:18:58;;;;;;;4.18;1.73;;;19.80;99.90;;;;;;4898440;29;20496;-60
2023/06/18 07:21:24;;;;;;;0.90;0.88;;;20.20;99.90;;;;;;4898347;29;20067;-60
2023/06/18 07:23:50;;;;;;;0.93;0.93;;;20.20;99.90;;;;;;4898655;29;20537;-61
2023/06/18 07:26:15;;;;;;;0.75;0.75;;;20.60;99.90;;;;;;4897511;29;20077;-61
2023/06/18 07:28:41;;;;;;;4.53;1.60;;;20.40;99.90;;;;;;4897132;29;20092;-61
2023/06/18 07:31:07;;;;;;;1.13;0.95;;;20.30;99.90;;;;;;4889704;29;20095;-62
2023/06/18 07:33:32;;;;;;;0.60;0.60;;;20.70;99.90;;;;;;4897495;29;20048;-61
2023/06/18 07:35:58;;;;;;;1.38;1.20;;;20.70;99.90;;;;;;4897704;29;20045;-61
2023/06/18 07:38:24;;;;;;;0.98;0.98;;;21.00;99.90;;;;;;4898060;29;20064;-61
2023/06/18 07:40:50;;;;;;;0.63;0.63;;;20.60;99.90;;;;;;4897200;29;20079;-61
2023/06/18 07:43:16;;;;;;;0.90;0.88;;;20.60;99.90;;;;;;4897858;29;20417;-61
2023/06/18 07:45:42;;;;;;;2.95;2.15;;;21.00;99.90;;;;;;4896556;29;20493;-62
2023/06/18 07:48:07;;;;;;;0.73;0.73;;;21.10;99.90;;;;;;4897312;29;20092;-61
2023/06/18 07:50:34;;;;;;;1.73;1.20;;;21.10;99.90;;;;;;4897129;29;20387;-62
2023/06/18 07:52:59;;;;;;;1.45;1.00;;;21.20;99.90;;;;;;4912461;29;20147;-61
2023/06/18 07:55:25;;;;;;;0.50;0.50;;;21.20;99.90;;;;;;4896962;29;20049;-62
2023/06/18 07:57:51;;;;;;;1.48;1.30;;;21.00;99.90;;;;;;4897459;29;20071;-62
2023/06/18 08:00:17;;;;;;;1.13;1.02;;;21.40;99.90;;;;;;4899820;29;20071;-63
2023/06/18 08:02:43;;;;;;;5.18;1.08;;;21.50;99.90;;;;;;4896665;29;20127;-62
2023/06/18 08:05:09;;;;;;;1.55;1.45;;;21.60;99.90;;;;;;4897118;29;20061;-61
2023/06/18 08:07:35;;;;;;;1.60;1.20;;;21.20;99.90;;;;;;4897457;29;20060;-61
2023/06/18 08:10:01;;;;;;;2.05;1.33;;;21.60;99.90;;;;;;4894330;29;20048;-63
2023/06/18 08:12:26;;;;;;;1.58;0.52;;;21.80;99.90;;;;;;4895484;29;20857;-63
2023/06/18 08:14:52;;;;;;;1.35;1.17;;;21.90;99.90;;;;;;4925685;29;20143;-63
2023/06/18 08:17:18;;;;;;;1.73;1.20;;;22.10;99.90;;;;;;4896210;29;20503;-62
2023/06/18 08:19:45;;;;;;;0.85;0.75;;;22.70;99.90;;;;;;4927556;29;20108;-62
2023/06/18 08:22:15;;;;;;;0.60;0.60;;;22.90;99.90;;;;;;4897607;29;20045;-62
2023/06/18 08:24:41;;;;;;;1.25;0.80;;;22.80;99.90;;;;;;4897699;29;20080;-63
2023/06/18 08:27:07;;;;;;;0.68;0.45;;;22.70;99.90;;;;;;4896886;29;20048;-63
2023/06/18 08:29:33;;;;;;;1.13;1.02;;;23.10;99.90;;;;;;4897450;29;20184;-63
2023/06/18 08:32:04;;;;;;;1.15;1.05;;;23.20;99.90;;;;;;4897098;29;20493;-62
2023/06/18 08:34:36;;;;;;;0.70;0.70;;;23.10;99.90;;;;;;4896147;29;20056;-62
2023/06/18 08:37:02;;;;;;;1.95;1.33;;;23.40;99.90;;;;;;4897340;29;20064;-62
2023/06/18 08:39:29;;;;;;;0.63;0.63;;;23.50;99.90;;;;;;4896870;29;20057;-64
2023/06/18 08:41:59;;;;;;;3.97;0.90;;;23.60;99.90;;;;;;4897179;29;20095;-62
2023/06/18 08:44:29;;;;;;;0.85;0.85;;;24.10;99.90;;;;;;4896763;29;20119;-62
2023/06/18 08:47:01;;;;;;;1.52;0.73;;;24.00;99.90;;;;;;4896120;29;20051;-63
2023/06/18 08:49:28;;;;;;;0.30;0.30;;;24.30;99.90;;;;;;4879879;29;20056;-62
2023/06/18 08:51:56;;;;;;;1.15;1.05;;;24.60;99.90;;;;;;4896059;29;20056;-63
2023/06/18 08:54:27;;;;;;;0.40;0.40;;;24.70;99.90;;;;;;4896451;29;20041;-62
2023/06/18 08:57:00;;;;;;;1.42;1.33;;;24.60;99.90;;;;;;4896669;29;20049;-62
2023/06/18 08:59:26;;;;;;;1.05;0.98;;;24.60;99.90;;;;;;4896435;29;20053;-62
2023/06/18 09:01:53;;;;;;;1.10;0.70;;;24.90;99.90;;;;;;4897036;29;20048;-63
2023/06/18 09:04:21;;;;;;;1.10;1.00;;;25.10;99.90;;;;;;4896935;29;20056;-62
2023/06/18 09:06:48;;;;;;;1.00;1.00;;;24.90;99.90;;;;;;4896786;29;20083;-62
2023/06/18 09:09:13;;;;;;;1.23;1.13;;;24.60;99.90;;;;;;4896770;29;20048;-62
2023/06/18 09:11:39;;;;;;;1.08;0.70;;;24.90;99.90;;;;;;4896636;29;20048;-62
2023/06/18 09:14:05;;;;;;;0.90;0.88;;;24.70;99.90;;;;;;4896423;29;20502;-62
2023/06/18 09:16:31;;;;;;;0.95;0.95;;;24.50;99.90;;;;;;4896718;29;20048;-62
2023/06/18 09:18:57;;;;;;;1.70;0.70;;;24.90;99.90;;;;;;4896870;29;20456;-63
2023/06/18 09:21:40;;;;;;;1.85;1.08;;;24.60;99.90;;;;;;4897017;29;20127;-62
2023/06/18 09:24:18;;;;;;;1.30;1.20;;;25.10;99.90;;;;;;4896678;29;20164;-62
2023/06/18 09:26:44;;;;;;;1.00;0.65;;;24.90;99.90;;;;;;4896630;29;20557;-62
2023/06/18 09:29:11;;;;;;;1.25;1.17;;;25.10;99.90;;;;;;4880007;29;20181;-62
2023/06/18 09:31:41;;;;;;;0.50;0.50;;;25.10;99.90;;;;;;4896612;29;20048;-62
2023/06/18 09:34:18;;;;;;;2.70;1.30;;;25.70;99.90;;;;;;4896476;29;20049;-63
2023/06/18 09:36:45;;;;;;;0.60;0.60;;;25.70;99.90;;;;;;4896403;29;20056;-62
2023/06/18 09:39:17;;;;;;;0.80;0.57;;;26.00;99.90;;;;;;4898848;29;20052;-62
2023/06/18 09:41:44;;;;;;;0.60;0.52;;;25.60;99.90;;;;;;4900612;29;20056;-62
2023/06/18 09:44:11;;;;;;;1.30;1.20;;;25.80;99.90;;;;;;4900332;29;20099;-62
2023/06/18 09:46:37;;;;;;;0.60;0.60;;;26.00;99.90;;;;;;4900417;29;20045;-64
2023/06/18 09:49:03;;;;;;;0.50;0.50;;;25.80;99.90;;;;;;4883460;29;20084;-62
2023/06/18 09:51:29;;;;;;;1.33;0.88;;;26.20;99.90;;;;;;4899748;29;20151;-62
2023/06/18 09:54:01;;;;;;;1.15;0.70;;;26.30;99.90;;;;;;4900329;29;20064;-61
2023/06/18 09:56:27;;;;;;;0.73;0.73;;;26.30;99.90;;;;;;4900307;29;20406;-61
2023/06/18 09:58:52;;;;;;;0.95;0.95;;;26.50;99.90;;;;;;4900136;29;20044;-62
2023/06/18 10:01:19;;;;;;;1.27;0.60;;;26.30;99.90;;;;;;4900036;29;20520;-62
2023/06/18 10:03:46;;;;;;;0.73;0.52;;;24.40;99.90;;;;;;4899935;29;20048;-63
2023/06/18 10:06:14;;;;;;;0.95;0.85;;;26.20;99.90;;;;;;4899817;29;20080;-64
2023/06/18 10:08:43;;;;;;;1.08;0.73;;;26.40;99.90;;;;;;4883339;29;20431;-62
2023/06/18 10:11:10;;;;;;;1.27;0.65;;;26.30;99.90;;;;;;4900021;29;20099;-62
2023/06/18 10:14:06;;;;;;;0.82;0.60;;;26.50;99.90;;;;;;4899860;29;20378;-62
2023/06/18 10:16:34;;;;;;;3.40;1.10;;;26.60;99.90;;;;;;4899668;29;20056;-63
2023/06/18 10:19:14;;;;;;;1.42;1.30;;;26.50;99.90;;;;;;4899939;29;20060;-62
2023/06/18 10:21:58;;;;;;;7.10;1.40;;;26.80;99.90;;;;;;4899852;29;20051;-62
2023/06/18 10:24:39;;;;;;;1.42;1.27;;;26.70;99.90;;;;;;4899713;29;20059;-62
2023/06/18 10:27:05;;;;;;;0.40;0.40;;;26.70;99.90;;;;;;4899558;29;20092;-62
2023/06/18 10:29:32;;;;;;;0.50;0.50;;;26.80;99.90;;;;;;4899782;29;20124;-62
2023/06/18 10:32:00;;;;;;;0.40;0.40;;;27.10;99.90;;;;;;4899593;29;20040;-62
2023/06/18 10:34:26;;;;;;;0.30;0.30;;;27.10;99.90;;;;;;4899519;29;20124;-62
2023/06/18 10:36:54;;;;;;;0.60;0.60;;;27.30;99.90;;;;;;4899414;29;20128;-62
2023/06/18 10:39:21;;;;;;;0.65;0.60;;;27.50;99.90;;;;;;4899296;29;20490;-62
2023/06/18 10:41:47;;;;;;;1.88;0.88;;;27.60;99.90;;;;;;4899193;29;20132;-62
2023/06/18 10:44:12;;;;;;;0.47;0.43;;;27.40;99.90;;;;;;4899347;29;20139;-63
2023/06/18 10:46:38;;;;;;;0.30;0.30;;;27.30;99.90;;;;;;4899296;29;20049;-62
2023/06/18 10:49:19;;;;;;;0.70;0.60;;;27.50;99.90;;;;;;4882047;29;20512;-62
2023/06/18 10:52:12;;;;;;;1.05;0.73;;;27.70;99.90;;;;;;4899184;29;20053;-63
2023/06/18 10:54:38;;;;;;;0.45;0.43;;;27.70;99.90;;;;;;4892046;29;20064;-62
2023/06/18 10:57:04;;;;;;;0.60;0.52;;;28.20;99.90;;;;;;4899180;29;20120;-62
2023/06/18 10:59:34;;;;;;;0.30;0.30;;;27.80;99.90;;;;;;4899043;29;20053;-62
2023/06/18 11:02:00;;;;;;;1.20;1.02;;;28.30;99.90;;;;;;4898973;29;20128;-62
2023/06/18 11:04:31;;;;;;;0.82;0.63;;;28.80;99.90;;;;;;4898871;29;20433;-62
2023/06/18 11:07:15;;;;;;;0.28;0.28;;;28.40;99.90;;;;;;4899104;29;20041;-62
2023/06/18 11:09:49;;;;;;;0.65;0.65;;;28.80;99.90;;;;;;4897355;29;20136;-63
2023/06/18 11:12:28;;;;;;;1.42;1.08;;;28.40;99.90;;;;;;4897274;29;20151;-62
2023/06/18 11:15:23;;;;;;;1.20;1.08;;;28.80;99.90;;;;;;4898634;29;20057;-63
2023/06/18 11:17:53;;;;;;;1.55;1.30;;;28.40;99.90;;;;;;4890467;29;20065;-63
2023/06/18 11:20:21;;;;;;;0.57;0.57;;;28.50;99.90;;;;;;4897722;29;20071;-63
2023/06/18 11:22:48;;;;;;;0.50;0.50;;;28.20;99.90;;;;;;4898598;29;20055;-64
2023/06/18 11:25:15;;;;;;;0.75;0.75;;;28.60;99.90;;;;;;4898536;29;20052;-63
2023/06/18 11:27:42;;;;;;;1.80;1.08;;;28.30;99.90;;;;;;4898462;29;20052;-62
2023/06/18 11:30:10;;;;;;;0.73;0.73;;;28.40;99.90;;;;;;4898621;29;20063;-63
2023/06/18 11:32:35;;;;;;;0.50;0.50;;;28.70;99.90;;;;;;4898640;29;20056;-62
2023/06/18 11:35:01;;;;;;;2.97;1.00;;;28.80;99.90;;;;;;4898535;29;20052;-63
2023/06/18 11:37:30;;;;;;;0.45;0.45;;;29.30;99.90;;;;;;4898394;29;20044;-62
2023/06/18 11:39:56;;;;;;;0.30;0.30;;;29.40;99.90;;;;;;4898212;29;20140;-62
2023/06/18 11:42:25;;;;;;;1.10;1.02;;;29.40;99.90;;;;;;4898419;29;20044;-63
2023/06/18 11:45:03;;;;;;;0.50;0.50;;;29.50;99.90;;;;;;4898348;29;20096;-64
2023/06/18 11:47:30;;;;;;;0.80;0.65;;;29.20;99.90;;;;;;4898288;29;20087;-63
2023/06/18 11:49:57;;;;;;;0.75;0.60;;;28.80;99.90;;;;;;4898039;29;20063;-63
2023/06/18 11:52:27;;;;;;;2.72;1.02;;;29.30;99.90;;;;;;4898139;29;20497;-62
2023/06/18 11:54:54;;;;;;;0.50;0.50;;;29.30;99.90;;;;;;4898238;29;20056;-63
2023/06/18 11:57:21;;;;;;;2.63;0.90;;;29.20;99.90;;;;;;4897834;29;20680;-62
2023/06/18 11:59:52;;;;;;;2.38;1.17;;;29.20;99.90;;;;;;4897663;29;20086;-63
2023/06/18 12:02:23;;;;;;;0.70;0.70;;;29.10;99.90;;;;;;4896827;29;20105;-62
2023/06/18 12:04:50;;;;;;;1.60;1.13;;;29.00;99.90;;;;;;4897458;29;20428;-62
2023/06/18 12:07:23;;;;;;;1.63;0.50;;;29.40;99.90;;;;;;4897752;29;20413;-63
2023/06/18 12:09:51;;;;;;;0.65;0.65;;;29.00;99.90;;;;;;4897718;29;20131;-63
2023/06/18 12:12:38;;;;;;;0.40;0.40;;;28.90;99.90;;;;;;4897528;29;20397;-64
2023/06/18 12:15:12;;;;;;;0.95;0.95;;;29.10;99.90;;;;;;4897396;29;20048;-63
2023/06/18 12:17:52;;;;;;;0.22;0.20;;;28.90;99.90;;;;;;4896345;29;20585;-62
2023/06/18 12:20:20;;;;;;;0.22;0.22;;;28.80;99.90;;;;;;4897479;29;20060;-63
2023/06/18 12:22:47;;;;;;;0.50;0.50;;;29.20;99.90;;;;;;4897277;29;20059;-63
2023/06/18 12:25:13;;;;;;;0.43;0.38;;;29.00;99.90;;;;;;4897262;29;20057;-63
2023/06/18 12:27:41;;;;;;;1.13;0.98;;;29.10;99.90;;;;;;4897028;29;20188;-63
2023/06/18 12:30:08;;;;;;;0.20;0.20;;;29.00;99.90;;;;;;4927348;29;20045;-63
2023/06/18 12:32:35;;;;;;;0.70;0.70;;;29.00;99.90;;;;;;4897147;29;20101;-63
2023/06/18 12:35:13;;;;;;;0.10;0.10;;;29.30;99.90;;;;;;4897181;29;20060;-63
2023/06/18 12:37:43;;;;;;;0.45;0.45;;;29.50;99.90;;;;;;4897106;29;20186;-63
2023/06/18 12:40:15;;;;;;;1.67;0.55;;;29.70;99.90;;;;;;4896854;29;20056;-63
2023/06/18 12:42:42;;;;;;;1.77;0.85;;;30.00;99.90;;;;;;4896809;29;20052;-64
2023/06/18 12:45:08;;;;;;;0.93;0.85;;;30.20;99.90;;;;;;4897059;29;20083;-64
2023/06/18 12:47:42;;;;;;;1.13;1.05;;;30.20;99.90;;;;;;4896903;29;20180;-63
2023/06/18 12:50:09;;;;;;;0.63;0.63;;;29.80;99.90;;;;;;4896889;29;20052;-65
2023/06/18 12:52:40;;;;;;;0.98;0.98;;;29.80;99.90;;;;;;4896478;29;20064;-65
2023/06/18 12:55:27;;;;;;;5.47;1.48;;;30.10;99.90;;;;;;4896540;29;20406;-63
2023/06/18 12:57:53;;;;;;;0.90;0.90;;;29.70;99.90;;;;;;4896642;29;20049;-63
2023/06/18 13:00:21;;;;;;;0.52;0.52;;;29.70;99.90;;;;;;4896656;29;20076;-63